sensor_id;sensor_type;location;lat;lon;timestamp;P1;durP1;ratioP1;P2;durP2;ratioP2
6392;SDS011;3229;42.674;23.282;2022-09-01T00:01:26;10.07;;;8.87;;
6392;SDS011;3229;42.674;23.282;2022-09-01T00:03:55;11.17;;;9.80;;
6392;SDS011;3229;42.674;23.282;2022-09-01T00:06:29;11.97;;;9.50;;
6392;SDS011;3229;42.674;23.282;2022-09-01T00:09:00;10.70;;;9.03;;
6392;SDS011;3229;42.674;23.282;2022-09-01T00:11:29;12.37;;;9.40;;
6392;SDS011;3229;42.674;23.282;2022-09-01T00:13:58;11.47;;;10.17;;
6392;SDS011;3229;42.674;23.282;2022-09-01T00:16:26;11.23;;;10.13;;
6392;SDS011;3229;42.674;23.282;2022-09-01T00:18:56;13.83;;;9.37;;
6392;SDS011;3229;42.674;23.282;2022-09-01T00:21:25;10.00;;;8.93;;
6392;SDS011;3229;42.674;23.282;2022-09-01T00:23:55;13.57;;;9.53;;
6392;SDS011;3229;42.674;23.282;2022-09-01T00:26:22;10.20;;;9.27;;
6392;SDS011;3229;42.674;23.282;2022-09-01T00:28:49;9.80;;;8.90;;
6392;SDS011;3229;42.674;23.282;2022-09-01T00:31:16;10.03;;;9.13;;
6392;SDS011;3229;42.674;23.282;2022-09-01T00:33:44;10.80;;;9.70;;
6392;SDS011;3229;42.674;23.282;2022-09-01T00:36:12;10.30;;;8.90;;
6392;SDS011;3229;42.674;23.282;2022-09-01T00:38:39;9.40;;;8.47;;
6392;SDS011;3229;42.674;23.282;2022-09-01T00:41:06;15.80;;;9.33;;
6392;SDS011;3229;42.674;23.282;2022-09-01T00:43:35;12.37;;;9.33;;
6392;SDS011;3229;42.674;23.282;2022-09-01T00:46:04;12.33;;;9.53;;
6392;SDS011;3229;42.674;23.282;2022-09-01T00:48:32;12.93;;;9.17;;
6392;SDS011;3229;42.674;23.282;2022-09-01T00:50:59;9.63;;;8.40;;
6392;SDS011;3229;42.674;23.282;2022-09-01T00:53:29;13.17;;;9.30;;
6392;SDS011;3229;42.674;23.282;2022-09-01T00:55:57;10.43;;;8.80;;
6392;SDS011;3229;42.674;23.282;2022-09-01T00:58:24;9.80;;;8.80;;
6392;SDS011;3229;42.674;23.282;2022-09-01T01:00:52;12.40;;;9.87;;
6392;SDS011;3229;42.674;23.282;2022-09-01T01:03:19;9.80;;;8.93;;
6392;SDS011;3229;42.674;23.282;2022-09-01T01:05:48;13.60;;;9.53;;
6392;SDS011;3229;42.674;23.282;2022-09-01T01:08:19;9.47;;;8.63;;
6392;SDS011;3229;42.674;23.282;2022-09-01T01:10:53;10.20;;;9.30;;
6392;SDS011;3229;42.674;23.282;2022-09-01T01:13:19;11.67;;;10.27;;
6392;SDS011;3229;42.674;23.282;2022-09-01T01:15:48;11.20;;;9.77;;
6392;SDS011;3229;42.674;23.282;2022-09-01T01:18:15;10.63;;;9.60;;
6392;SDS011;3229;42.674;23.282;2022-09-01T01:20:42;12.37;;;9.47;;
6392;SDS011;3229;42.674;23.282;2022-09-01T01:23:28;11.67;;;9.23;;
6392;SDS011;3229;42.674;23.282;2022-09-01T01:26:03;12.90;;;10.93;;
6392;SDS011;3229;42.674;23.282;2022-09-01T01:28:34;13.87;;;10.33;;
6392;SDS011;3229;42.674;23.282;2022-09-01T01:31:03;12.83;;;10.67;;
6392;SDS011;3229;42.674;23.282;2022-09-01T01:33:36;11.47;;;9.63;;
6392;SDS011;3229;42.674;23.282;2022-09-01T01:36:05;11.00;;;9.97;;
6392;SDS011;3229;42.674;23.282;2022-09-01T01:38:34;11.47;;;10.27;;
6392;SDS011;3229;42.674;23.282;2022-09-01T01:41:02;14.67;;;10.33;;
6392;SDS011;3229;42.674;23.282;2022-09-01T01:43:30;11.93;;;10.77;;
6392;SDS011;3229;42.674;23.282;2022-09-01T01:45:57;14.67;;;10.10;;
6392;SDS011;3229;42.674;23.282;2022-09-01T01:48:26;11.27;;;10.07;;
6392;SDS011;3229;42.674;23.282;2022-09-01T01:50:59;13.07;;;11.70;;
6392;SDS011;3229;42.674;23.282;2022-09-01T01:53:26;12.37;;;10.77;;
6392;SDS011;3229;42.674;23.282;2022-09-01T01:55:54;12.90;;;11.57;;
6392;SDS011;3229;42.674;23.282;2022-09-01T01:58:22;14.63;;;11.40;;
6392;SDS011;3229;42.674;23.282;2022-09-01T02:00:52;13.30;;;11.00;;
6392;SDS011;3229;42.674;23.282;2022-09-01T02:03:21;12.67;;;11.33;;
6392;SDS011;3229;42.674;23.282;2022-09-01T02:05:50;12.30;;;11.00;;
6392;SDS011;3229;42.674;23.282;2022-09-01T02:08:19;14.70;;;12.70;;
6392;SDS011;3229;42.674;23.282;2022-09-01T02:10:51;12.77;;;10.37;;
6392;SDS011;3229;42.674;23.282;2022-09-01T02:13:20;14.37;;;11.00;;
6392;SDS011;3229;42.674;23.282;2022-09-01T02:15:55;14.37;;;11.23;;
6392;SDS011;3229;42.674;23.282;2022-09-01T02:18:30;12.80;;;9.93;;
6392;SDS011;3229;42.674;23.282;2022-09-01T02:20:59;11.43;;;10.10;;
6392;SDS011;3229;42.674;23.282;2022-09-01T02:23:27;14.43;;;10.37;;
6392;SDS011;3229;42.674;23.282;2022-09-01T02:25:56;12.90;;;10.47;;
6392;SDS011;3229;42.674;23.282;2022-09-01T02:28:28;13.70;;;10.40;;
6392;SDS011;3229;42.674;23.282;2022-09-01T02:30:59;12.80;;;10.53;;
6392;SDS011;3229;42.674;23.282;2022-09-01T02:33:28;13.40;;;10.53;;
6392;SDS011;3229;42.674;23.282;2022-09-01T02:35:56;11.30;;;10.07;;
6392;SDS011;3229;42.674;23.282;2022-09-01T02:38:25;10.67;;;9.30;;
6392;SDS011;3229;42.674;23.282;2022-09-01T02:40:53;12.07;;;10.53;;
6392;SDS011;3229;42.674;23.282;2022-09-01T02:43:21;11.27;;;10.27;;
6392;SDS011;3229;42.674;23.282;2022-09-01T02:45:52;11.70;;;9.93;;
6392;SDS011;3229;42.674;23.282;2022-09-01T02:48:23;11.73;;;10.63;;
6392;SDS011;3229;42.674;23.282;2022-09-01T02:50:53;11.90;;;10.73;;
6392;SDS011;3229;42.674;23.282;2022-09-01T02:53:21;12.07;;;10.60;;
6392;SDS011;3229;42.674;23.282;2022-09-01T02:55:48;12.87;;;10.30;;
6392;SDS011;3229;42.674;23.282;2022-09-01T02:58:15;16.57;;;11.70;;
6392;SDS011;3229;42.674;23.282;2022-09-01T03:00:44;15.70;;;11.00;;
6392;SDS011;3229;42.674;23.282;2022-09-01T03:03:12;13.47;;;10.43;;
6392;SDS011;3229;42.674;23.282;2022-09-01T03:05:41;14.87;;;10.73;;
6392;SDS011;3229;42.674;23.282;2022-09-01T03:08:09;12.30;;;11.10;;
6392;SDS011;3229;42.674;23.282;2022-09-01T03:10:40;11.73;;;10.63;;
6392;SDS011;3229;42.674;23.282;2022-09-01T03:13:11;12.53;;;11.23;;
6392;SDS011;3229;42.674;23.282;2022-09-01T03:15:40;11.73;;;10.57;;
6392;SDS011;3229;42.674;23.282;2022-09-01T03:18:08;11.77;;;10.67;;
6392;SDS011;3229;42.674;23.282;2022-09-01T03:20:39;12.73;;;11.53;;
6392;SDS011;3229;42.674;23.282;2022-09-01T03:23:10;17.13;;;11.07;;
6392;SDS011;3229;42.674;23.282;2022-09-01T03:25:40;13.07;;;11.77;;
6392;SDS011;3229;42.674;23.282;2022-09-01T03:28:08;16.10;;;11.47;;
6392;SDS011;3229;42.674;23.282;2022-09-01T03:30:37;11.90;;;10.70;;
6392;SDS011;3229;42.674;23.282;2022-09-01T03:33:09;12.07;;;10.87;;
6392;SDS011;3229;42.674;23.282;2022-09-01T03:35:36;13.23;;;11.20;;
6392;SDS011;3229;42.674;23.282;2022-09-01T03:38:04;14.37;;;10.27;;
6392;SDS011;3229;42.674;23.282;2022-09-01T03:40:33;11.27;;;9.63;;
6392;SDS011;3229;42.674;23.282;2022-09-01T03:43:03;12.47;;;11.27;;
6392;SDS011;3229;42.674;23.282;2022-09-01T03:45:36;13.33;;;10.70;;
6392;SDS011;3229;42.674;23.282;2022-09-01T03:48:03;12.23;;;10.77;;
6392;SDS011;3229;42.674;23.282;2022-09-01T03:50:33;13.13;;;11.60;;
6392;SDS011;3229;42.674;23.282;2022-09-01T03:53:04;12.70;;;11.40;;
6392;SDS011;3229;42.674;23.282;2022-09-01T03:55:33;11.77;;;10.67;;
6392;SDS011;3229;42.674;23.282;2022-09-01T03:58:05;14.10;;;11.13;;
6392;SDS011;3229;42.674;23.282;2022-09-01T04:00:38;11.43;;;10.27;;
6392;SDS011;3229;42.674;23.282;2022-09-01T04:03:07;12.60;;;10.57;;
6392;SDS011;3229;42.674;23.282;2022-09-01T04:05:37;12.07;;;10.83;;
6392;SDS011;3229;42.674;23.282;2022-09-01T04:08:06;14.10;;;10.30;;
6392;SDS011;3229;42.674;23.282;2022-09-01T04:10:36;16.30;;;11.40;;
6392;SDS011;3229;42.674;23.282;2022-09-01T04:13:08;14.53;;;11.90;;
6392;SDS011;3229;42.674;23.282;2022-09-01T04:15:36;13.77;;;11.80;;
6392;SDS011;3229;42.674;23.282;2022-09-01T04:18:03;13.77;;;12.17;;
6392;SDS011;3229;42.674;23.282;2022-09-01T04:20:33;18.30;;;12.90;;
6392;SDS011;3229;42.674;23.282;2022-09-01T04:23:14;18.00;;;12.17;;
6392;SDS011;3229;42.674;23.282;2022-09-01T04:25:50;13.27;;;11.90;;
6392;SDS011;3229;42.674;23.282;2022-09-01T04:28:19;14.87;;;12.90;;
6392;SDS011;3229;42.674;23.282;2022-09-01T04:30:54;19.63;;;12.70;;
6392;SDS011;3229;42.674;23.282;2022-09-01T04:33:23;15.70;;;13.43;;
6392;SDS011;3229;42.674;23.282;2022-09-01T04:35:51;16.53;;;13.53;;
6392;SDS011;3229;42.674;23.282;2022-09-01T04:38:25;16.90;;;13.37;;
6392;SDS011;3229;42.674;23.282;2022-09-01T04:40:53;16.40;;;13.77;;
6392;SDS011;3229;42.674;23.282;2022-09-01T04:43:22;16.37;;;12.87;;
6392;SDS011;3229;42.674;23.282;2022-09-01T04:45:52;15.07;;;13.57;;
6392;SDS011;3229;42.674;23.282;2022-09-01T04:48:21;14.83;;;12.77;;
6392;SDS011;3229;42.674;23.282;2022-09-01T04:50:48;15.40;;;13.90;;
6392;SDS011;3229;42.674;23.282;2022-09-01T04:53:16;18.70;;;13.90;;
6392;SDS011;3229;42.674;23.282;2022-09-01T04:55:45;15.73;;;13.40;;
6392;SDS011;3229;42.674;23.282;2022-09-01T04:58:13;16.43;;;14.43;;
6392;SDS011;3229;42.674;23.282;2022-09-01T05:00:43;14.20;;;12.80;;
6392;SDS011;3229;42.674;23.282;2022-09-01T05:03:12;16.23;;;14.53;;
6392;SDS011;3229;42.674;23.282;2022-09-01T05:05:45;19.07;;;14.33;;
6392;SDS011;3229;42.674;23.282;2022-09-01T05:08:13;24.07;;;14.57;;
6392;SDS011;3229;42.674;23.282;2022-09-01T05:10:42;19.47;;;15.80;;
6392;SDS011;3229;42.674;23.282;2022-09-01T05:13:14;16.33;;;14.53;;
6392;SDS011;3229;42.674;23.282;2022-09-01T05:15:42;17.70;;;15.53;;
6392;SDS011;3229;42.674;23.282;2022-09-01T05:18:12;22.83;;;15.97;;
6392;SDS011;3229;42.674;23.282;2022-09-01T05:20:48;15.30;;;13.63;;
6392;SDS011;3229;42.674;23.282;2022-09-01T05:23:15;17.43;;;14.83;;
6392;SDS011;3229;42.674;23.282;2022-09-01T05:25:46;20.77;;;14.77;;
6392;SDS011;3229;42.674;23.282;2022-09-01T05:28:15;22.43;;;15.07;;
6392;SDS011;3229;42.674;23.282;2022-09-01T05:30:44;16.40;;;14.70;;
6392;SDS011;3229;42.674;23.282;2022-09-01T05:33:13;16.87;;;15.07;;
6392;SDS011;3229;42.674;23.282;2022-09-01T05:35:41;23.63;;;16.03;;
6392;SDS011;3229;42.674;23.282;2022-09-01T05:38:17;25.70;;;15.43;;
6392;SDS011;3229;42.674;23.282;2022-09-01T05:40:53;20.23;;;16.27;;
6392;SDS011;3229;42.674;23.282;2022-09-01T05:43:22;21.67;;;14.47;;
6392;SDS011;3229;42.674;23.282;2022-09-01T05:45:50;18.57;;;16.67;;
6392;SDS011;3229;42.674;23.282;2022-09-01T05:48:18;17.23;;;14.13;;
6392;SDS011;3229;42.674;23.282;2022-09-01T05:50:45;16.90;;;14.43;;
6392;SDS011;3229;42.674;23.282;2022-09-01T05:53:14;18.98;;;15.40;;
6392;SDS011;3229;42.674;23.282;2022-09-01T05:55:42;17.53;;;13.17;;
6392;SDS011;3229;42.674;23.282;2022-09-01T05:58:12;21.67;;;16.23;;
6392;SDS011;3229;42.674;23.282;2022-09-01T06:00:41;20.25;;;17.23;;
6392;SDS011;3229;42.674;23.282;2022-09-01T06:03:09;21.63;;;16.00;;
6392;SDS011;3229;42.674;23.282;2022-09-01T06:05:38;15.48;;;13.90;;
6392;SDS011;3229;42.674;23.282;2022-09-01T06:08:06;26.55;;;16.52;;
6392;SDS011;3229;42.674;23.282;2022-09-01T06:10:35;23.40;;;17.27;;
6392;SDS011;3229;42.674;23.282;2022-09-01T06:13:04;18.15;;;16.30;;
6392;SDS011;3229;42.674;23.282;2022-09-01T06:15:33;20.57;;;17.30;;
6392;SDS011;3229;42.674;23.282;2022-09-01T06:18:03;17.85;;;15.95;;
6392;SDS011;3229;42.674;23.282;2022-09-01T06:20:31;23.58;;;18.05;;
6392;SDS011;3229;42.674;23.282;2022-09-01T06:23:00;21.70;;;16.45;;
6392;SDS011;3229;42.674;23.282;2022-09-01T06:25:27;25.63;;;17.33;;
6392;SDS011;3229;42.674;23.282;2022-09-01T06:27:54;18.65;;;16.70;;
6392;SDS011;3229;42.674;23.282;2022-09-01T06:30:22;21.23;;;16.58;;
6392;SDS011;3229;42.674;23.282;2022-09-01T06:32:52;22.52;;;16.67;;
6392;SDS011;3229;42.674;23.282;2022-09-01T06:35:19;24.15;;;18.98;;
6392;SDS011;3229;42.674;23.282;2022-09-01T06:37:49;23.20;;;18.95;;
6392;SDS011;3229;42.674;23.282;2022-09-01T06:40:16;21.67;;;17.67;;
6392;SDS011;3229;42.674;23.282;2022-09-01T06:42:44;21.77;;;16.58;;
6392;SDS011;3229;42.674;23.282;2022-09-01T06:45:12;22.77;;;17.02;;
6392;SDS011;3229;42.674;23.282;2022-09-01T06:47:40;24.13;;;17.90;;
6392;SDS011;3229;42.674;23.282;2022-09-01T06:50:11;22.73;;;18.90;;
6392;SDS011;3229;42.674;23.282;2022-09-01T06:52:39;29.05;;;20.58;;
6392;SDS011;3229;42.674;23.282;2022-09-01T06:55:07;23.42;;;19.90;;
6392;SDS011;3229;42.674;23.282;2022-09-01T06:57:35;28.15;;;22.73;;
6392;SDS011;3229;42.674;23.282;2022-09-01T07:00:03;25.40;;;22.52;;
6392;SDS011;3229;42.674;23.282;2022-09-01T07:02:42;26.83;;;21.27;;
6392;SDS011;3229;42.674;23.282;2022-09-01T07:05:11;25.92;;;20.38;;
6392;SDS011;3229;42.674;23.282;2022-09-01T07:07:41;24.17;;;21.27;;
6392;SDS011;3229;42.674;23.282;2022-09-01T07:10:10;22.65;;;20.25;;
6392;SDS011;3229;42.674;23.282;2022-09-01T07:12:39;29.00;;;22.27;;
6392;SDS011;3229;42.674;23.282;2022-09-01T07:15:10;32.55;;;23.40;;
6392;SDS011;3229;42.674;23.282;2022-09-01T07:17:41;30.83;;;20.52;;
6392;SDS011;3229;42.674;23.282;2022-09-01T07:20:08;24.85;;;20.45;;
6392;SDS011;3229;42.674;23.282;2022-09-01T07:22:39;29.58;;;22.50;;
6392;SDS011;3229;42.674;23.282;2022-09-01T07:25:06;27.00;;;20.38;;
6392;SDS011;3229;42.674;23.282;2022-09-01T07:27:36;28.77;;;22.85;;
6392;SDS011;3229;42.674;23.282;2022-09-01T07:30:04;30.88;;;22.08;;
6392;SDS011;3229;42.674;23.282;2022-09-01T07:32:33;29.15;;;23.35;;
6392;SDS011;3229;42.674;23.282;2022-09-01T07:35:01;30.35;;;23.27;;
6392;SDS011;3229;42.674;23.282;2022-09-01T07:37:30;29.60;;;23.80;;
6392;SDS011;3229;42.674;23.282;2022-09-01T07:40:02;31.15;;;22.88;;
6392;SDS011;3229;42.674;23.282;2022-09-01T07:42:31;31.45;;;24.15;;
6392;SDS011;3229;42.674;23.282;2022-09-01T07:44:58;31.90;;;21.88;;
6392;SDS011;3229;42.674;23.282;2022-09-01T07:47:25;28.45;;;22.02;;
6392;SDS011;3229;42.674;23.282;2022-09-01T07:49:53;30.85;;;22.30;;
6392;SDS011;3229;42.674;23.282;2022-09-01T07:52:21;28.58;;;22.60;;
6392;SDS011;3229;42.674;23.282;2022-09-01T07:54:49;30.77;;;21.92;;
6392;SDS011;3229;42.674;23.282;2022-09-01T07:57:16;29.83;;;20.30;;
6392;SDS011;3229;42.674;23.282;2022-09-01T07:59:42;29.33;;;21.67;;
6392;SDS011;3229;42.674;23.282;2022-09-01T08:02:09;33.60;;;21.65;;
6392;SDS011;3229;42.674;23.282;2022-09-01T08:04:36;32.60;;;22.42;;
6392;SDS011;3229;42.674;23.282;2022-09-01T08:07:04;25.33;;;19.60;;
6392;SDS011;3229;42.674;23.282;2022-09-01T08:09:31;26.83;;;20.05;;
6392;SDS011;3229;42.674;23.282;2022-09-01T08:12:02;27.02;;;19.42;;
6392;SDS011;3229;42.674;23.282;2022-09-01T08:14:29;24.67;;;20.15;;
6392;SDS011;3229;42.674;23.282;2022-09-01T08:16:56;22.38;;;19.35;;
6392;SDS011;3229;42.674;23.282;2022-09-01T08:19:24;24.48;;;20.10;;
6392;SDS011;3229;42.674;23.282;2022-09-01T08:21:51;33.22;;;20.02;;
6392;SDS011;3229;42.674;23.282;2022-09-01T08:24:18;23.25;;;19.25;;
6392;SDS011;3229;42.674;23.282;2022-09-01T08:26:46;27.45;;;18.90;;
6392;SDS011;3229;42.674;23.282;2022-09-01T08:29:14;19.65;;;16.23;;
6392;SDS011;3229;42.674;23.282;2022-09-01T08:31:41;22.80;;;16.73;;
6392;SDS011;3229;42.674;23.282;2022-09-01T08:34:07;20.48;;;16.05;;
6392;SDS011;3229;42.674;23.282;2022-09-01T08:36:37;26.13;;;17.60;;
6392;SDS011;3229;42.674;23.282;2022-09-01T08:39:04;24.98;;;18.05;;
6392;SDS011;3229;42.674;23.282;2022-09-01T08:41:35;20.98;;;17.35;;
6392;SDS011;3229;42.674;23.282;2022-09-01T08:44:10;23.25;;;17.13;;
6392;SDS011;3229;42.674;23.282;2022-09-01T08:46:43;15.90;;;13.90;;
6392;SDS011;3229;42.674;23.282;2022-09-01T08:49:13;20.67;;;13.95;;
6392;SDS011;3229;42.674;23.282;2022-09-01T08:51:45;20.58;;;14.30;;
6392;SDS011;3229;42.674;23.282;2022-09-01T08:54:17;15.32;;;13.50;;
6392;SDS011;3229;42.674;23.282;2022-09-01T08:56:50;18.98;;;13.02;;
6392;SDS011;3229;42.674;23.282;2022-09-01T08:59:22;15.35;;;12.63;;
6392;SDS011;3229;42.674;23.282;2022-09-01T09:01:55;22.80;;;13.30;;
6392;SDS011;3229;42.674;23.282;2022-09-01T09:04:31;20.40;;;15.15;;
6392;SDS011;3229;42.674;23.282;2022-09-01T09:07:12;18.00;;;15.77;;
6392;SDS011;3229;42.674;23.282;2022-09-01T09:09:46;15.75;;;14.10;;
6392;SDS011;3229;42.674;23.282;2022-09-01T09:12:23;17.00;;;13.65;;
6392;SDS011;3229;42.674;23.282;2022-09-01T09:15:03;21.27;;;15.10;;
6392;SDS011;3229;42.674;23.282;2022-09-01T09:17:42;14.98;;;12.75;;
6392;SDS011;3229;42.674;23.282;2022-09-01T09:20:12;19.63;;;14.25;;
6392;SDS011;3229;42.674;23.282;2022-09-01T09:22:39;18.48;;;13.73;;
6392;SDS011;3229;42.674;23.282;2022-09-01T09:25:08;14.98;;;12.55;;
6392;SDS011;3229;42.674;23.282;2022-09-01T09:27:40;14.65;;;13.02;;
6392;SDS011;3229;42.674;23.282;2022-09-01T09:30:11;15.93;;;13.23;;
6392;SDS011;3229;42.674;23.282;2022-09-01T09:32:41;15.68;;;12.65;;
6392;SDS011;3229;42.674;23.282;2022-09-01T09:35:19;16.38;;;12.95;;
6392;SDS011;3229;42.674;23.282;2022-09-01T09:37:49;19.60;;;13.77;;
6392;SDS011;3229;42.674;23.282;2022-09-01T09:40:17;14.25;;;12.55;;
6392;SDS011;3229;42.674;23.282;2022-09-01T09:43:05;13.77;;;11.98;;
6392;SDS011;3229;42.674;23.282;2022-09-01T09:45:35;15.27;;;11.43;;
6392;SDS011;3229;42.674;23.282;2022-09-01T09:48:06;17.63;;;11.82;;
6392;SDS011;3229;42.674;23.282;2022-09-01T09:50:35;13.82;;;12.40;;
6392;SDS011;3229;42.674;23.282;2022-09-01T09:53:09;13.30;;;11.95;;
6392;SDS011;3229;42.674;23.282;2022-09-01T09:55:48;16.17;;;11.38;;
6392;SDS011;3229;42.674;23.282;2022-09-01T09:58:19;15.90;;;11.93;;
6392;SDS011;3229;42.674;23.282;2022-09-01T10:00:58;12.88;;;11.57;;
6392;SDS011;3229;42.674;23.282;2022-09-01T10:03:34;16.35;;;12.27;;
6392;SDS011;3229;42.674;23.282;2022-09-01T10:06:02;17.27;;;11.30;;
6392;SDS011;3229;42.674;23.282;2022-09-01T10:08:36;15.07;;;12.27;;
6392;SDS011;3229;42.674;23.282;2022-09-01T10:11:09;20.02;;;12.52;;
6392;SDS011;3229;42.674;23.282;2022-09-01T10:13:37;14.55;;;10.63;;
6392;SDS011;3229;42.674;23.282;2022-09-01T10:16:08;14.43;;;11.02;;
6392;SDS011;3229;42.674;23.282;2022-09-01T10:18:44;11.18;;;9.98;;
6392;SDS011;3229;42.674;23.282;2022-09-01T10:21:14;14.50;;;9.13;;
6392;SDS011;3229;42.674;23.282;2022-09-01T10:23:45;11.20;;;9.77;;
6392;SDS011;3229;42.674;23.282;2022-09-01T10:26:13;13.43;;;9.95;;
6392;SDS011;3229;42.674;23.282;2022-09-01T10:28:45;12.52;;;9.75;;
6392;SDS011;3229;42.674;23.282;2022-09-01T10:31:22;14.07;;;10.02;;
6392;SDS011;3229;42.674;23.282;2022-09-01T10:34:24;15.70;;;10.30;;
6392;SDS011;3229;42.674;23.282;2022-09-01T10:40:37;12.30;;;9.57;;
6392;SDS011;3229;42.674;23.282;2022-09-01T10:46:08;14.85;;;11.48;;
6392;SDS011;3229;42.674;23.282;2022-09-01T10:49:12;15.00;;;11.27;;
6392;SDS011;3229;42.674;23.282;2022-09-01T10:51:45;19.65;;;11.32;;
6392;SDS011;3229;42.674;23.282;2022-09-01T11:06:42;11.90;;;10.25;;
6392;SDS011;3229;42.674;23.282;2022-09-01T11:09:20;11.10;;;9.45;;
6392;SDS011;3229;42.674;23.282;2022-09-01T11:11:53;12.45;;;9.98;;
6392;SDS011;3229;42.674;23.282;2022-09-01T11:14:45;17.75;;;11.15;;
6392;SDS011;3229;42.674;23.282;2022-09-01T11:17:16;15.15;;;9.95;;
6392;SDS011;3229;42.674;23.282;2022-09-01T11:19:53;15.35;;;9.55;;
6392;SDS011;3229;42.674;23.282;2022-09-01T11:22:27;13.95;;;10.38;;
6392;SDS011;3229;42.674;23.282;2022-09-01T11:25:08;11.57;;;9.63;;
6392;SDS011;3229;42.674;23.282;2022-09-01T11:27:59;18.73;;;10.82;;
6392;SDS011;3229;42.674;23.282;2022-09-01T11:30:41;13.90;;;10.05;;
6392;SDS011;3229;42.674;23.282;2022-09-01T11:36:23;9.68;;;8.68;;
6392;SDS011;3229;42.674;23.282;2022-09-01T11:38:58;10.18;;;9.02;;
6392;SDS011;3229;42.674;23.282;2022-09-01T11:41:34;12.93;;;8.82;;
6392;SDS011;3229;42.674;23.282;2022-09-01T11:44:17;10.60;;;8.65;;
6392;SDS011;3229;42.674;23.282;2022-09-01T11:46:49;11.25;;;8.60;;
6392;SDS011;3229;42.674;23.282;2022-09-01T11:49:24;9.23;;;8.40;;
6392;SDS011;3229;42.674;23.282;2022-09-01T11:51:54;11.40;;;8.27;;
6392;SDS011;3229;42.674;23.282;2022-09-01T11:54:25;12.45;;;8.48;;
6392;SDS011;3229;42.674;23.282;2022-09-01T11:57:15;10.68;;;8.50;;
6392;SDS011;3229;42.674;23.282;2022-09-01T11:59:42;12.35;;;8.45;;
6392;SDS011;3229;42.674;23.282;2022-09-01T12:02:15;13.32;;;8.32;;
6392;SDS011;3229;42.674;23.282;2022-09-01T12:04:46;15.27;;;8.45;;
6392;SDS011;3229;42.674;23.282;2022-09-01T12:07:24;10.88;;;8.15;;
6392;SDS011;3229;42.674;23.282;2022-09-01T12:09:57;11.93;;;9.05;;
6392;SDS011;3229;42.674;23.282;2022-09-01T12:12:25;10.45;;;9.05;;
6392;SDS011;3229;42.674;23.282;2022-09-01T12:14:55;11.77;;;8.13;;
6392;SDS011;3229;42.674;23.282;2022-09-01T12:17:23;9.68;;;8.05;;
6392;SDS011;3229;42.674;23.282;2022-09-01T12:19:50;9.23;;;8.05;;
6392;SDS011;3229;42.674;23.282;2022-09-01T12:22:18;11.02;;;9.27;;
6392;SDS011;3229;42.674;23.282;2022-09-01T12:24:48;10.55;;;8.57;;
6392;SDS011;3229;42.674;23.282;2022-09-01T12:27:17;10.50;;;8.73;;
6392;SDS011;3229;42.674;23.282;2022-09-01T12:29:44;12.65;;;8.85;;
6392;SDS011;3229;42.674;23.282;2022-09-01T12:32:12;9.13;;;8.13;;
6392;SDS011;3229;42.674;23.282;2022-09-01T12:34:41;12.82;;;8.65;;
6392;SDS011;3229;42.674;23.282;2022-09-01T12:37:11;9.63;;;8.63;;
6392;SDS011;3229;42.674;23.282;2022-09-01T12:39:47;11.95;;;8.60;;
6392;SDS011;3229;42.674;23.282;2022-09-01T12:42:24;15.02;;;9.25;;
6392;SDS011;3229;42.674;23.282;2022-09-01T12:44:55;11.63;;;9.05;;
6392;SDS011;3229;42.674;23.282;2022-09-01T12:50:40;9.18;;;8.32;;
6392;SDS011;3229;42.674;23.282;2022-09-01T12:53:19;12.93;;;9.20;;
6392;SDS011;3229;42.674;23.282;2022-09-01T12:55:59;9.95;;;8.90;;
6392;SDS011;3229;42.674;23.282;2022-09-01T12:58:30;9.10;;;8.15;;
6392;SDS011;3229;42.674;23.282;2022-09-01T13:00:59;10.05;;;8.75;;
6392;SDS011;3229;42.674;23.282;2022-09-01T13:03:29;10.52;;;8.57;;
6392;SDS011;3229;42.674;23.282;2022-09-01T13:05:59;16.58;;;9.50;;
6392;SDS011;3229;42.674;23.282;2022-09-01T13:08:28;10.73;;;9.10;;
6392;SDS011;3229;42.674;23.282;2022-09-01T13:10:57;12.05;;;10.85;;
6392;SDS011;3229;42.674;23.282;2022-09-01T13:13:28;10.13;;;9.13;;
6392;SDS011;3229;42.674;23.282;2022-09-01T13:15:57;11.65;;;8.75;;
6392;SDS011;3229;42.674;23.282;2022-09-01T13:18:25;13.15;;;10.32;;
6392;SDS011;3229;42.674;23.282;2022-09-01T13:20:55;14.48;;;9.52;;
6392;SDS011;3229;42.674;23.282;2022-09-01T13:23:23;11.15;;;9.02;;
6392;SDS011;3229;42.674;23.282;2022-09-01T13:25:50;10.50;;;9.07;;
6392;SDS011;3229;42.674;23.282;2022-09-01T13:28:18;11.45;;;9.52;;
6392;SDS011;3229;42.674;23.282;2022-09-01T13:30:52;16.73;;;9.65;;
6392;SDS011;3229;42.674;23.282;2022-09-01T13:33:24;15.77;;;8.90;;
6392;SDS011;3229;42.674;23.282;2022-09-01T13:35:51;10.15;;;9.15;;
6392;SDS011;3229;42.674;23.282;2022-09-01T13:38:20;13.63;;;9.85;;
6392;SDS011;3229;42.674;23.282;2022-09-01T13:40:48;11.88;;;9.25;;
6392;SDS011;3229;42.674;23.282;2022-09-01T13:43:16;11.38;;;9.65;;
6392;SDS011;3229;42.674;23.282;2022-09-01T13:45:45;12.48;;;8.85;;
6392;SDS011;3229;42.674;23.282;2022-09-01T13:48:12;11.23;;;8.63;;
6392;SDS011;3229;42.674;23.282;2022-09-01T13:50:41;10.45;;;8.85;;
6392;SDS011;3229;42.674;23.282;2022-09-01T13:53:09;16.33;;;10.40;;
6392;SDS011;3229;42.674;23.282;2022-09-01T13:55:37;13.35;;;10.13;;
6392;SDS011;3229;42.674;23.282;2022-09-01T13:58:05;11.60;;;9.55;;
6392;SDS011;3229;42.674;23.282;2022-09-01T14:00:33;10.02;;;9.02;;
6392;SDS011;3229;42.674;23.282;2022-09-01T14:03:03;9.45;;;8.50;;
6392;SDS011;3229;42.674;23.282;2022-09-01T14:05:32;8.50;;;7.57;;
6392;SDS011;3229;42.674;23.282;2022-09-01T14:08:01;10.50;;;8.30;;
6392;SDS011;3229;42.674;23.282;2022-09-01T14:10:29;9.32;;;8.25;;
6392;SDS011;3229;42.674;23.282;2022-09-01T14:12:57;9.27;;;7.80;;
6392;SDS011;3229;42.674;23.282;2022-09-01T14:15:24;8.95;;;8.05;;
6392;SDS011;3229;42.674;23.282;2022-09-01T14:17:52;10.40;;;8.38;;
6392;SDS011;3229;42.674;23.282;2022-09-01T14:20:22;9.32;;;8.35;;
6392;SDS011;3229;42.674;23.282;2022-09-01T14:22:50;9.75;;;8.70;;
6392;SDS011;3229;42.674;23.282;2022-09-01T14:25:18;10.65;;;9.57;;
6392;SDS011;3229;42.674;23.282;2022-09-01T14:27:46;10.43;;;9.43;;
6392;SDS011;3229;42.674;23.282;2022-09-01T14:30:15;14.23;;;9.93;;
6392;SDS011;3229;42.674;23.282;2022-09-01T14:32:44;11.82;;;10.57;;
6392;SDS011;3229;42.674;23.282;2022-09-01T14:35:18;13.20;;;10.00;;
6392;SDS011;3229;42.674;23.282;2022-09-01T14:37:49;12.77;;;9.50;;
6392;SDS011;3229;42.674;23.282;2022-09-01T14:40:19;11.32;;;9.45;;
6392;SDS011;3229;42.674;23.282;2022-09-01T14:42:49;11.23;;;9.80;;
6392;SDS011;3229;42.674;23.282;2022-09-01T14:45:19;11.55;;;9.80;;
6392;SDS011;3229;42.674;23.282;2022-09-01T14:47:50;11.23;;;9.88;;
6392;SDS011;3229;42.674;23.282;2022-09-01T14:50:18;9.93;;;8.90;;
6392;SDS011;3229;42.674;23.282;2022-09-01T14:52:46;11.70;;;9.02;;
6392;SDS011;3229;42.674;23.282;2022-09-01T14:55:13;9.20;;;8.40;;
6392;SDS011;3229;42.674;23.282;2022-09-01T14:57:42;11.48;;;9.18;;
6392;SDS011;3229;42.674;23.282;2022-09-01T15:00:10;12.68;;;8.48;;
6392;SDS011;3229;42.674;23.282;2022-09-01T15:02:38;10.40;;;8.73;;
6392;SDS011;3229;42.674;23.282;2022-09-01T15:05:07;9.15;;;8.25;;
6392;SDS011;3229;42.674;23.282;2022-09-01T15:07:36;10.43;;;9.27;;
6392;SDS011;3229;42.674;23.282;2022-09-01T15:10:03;10.02;;;8.50;;
6392;SDS011;3229;42.674;23.282;2022-09-01T15:12:32;13.05;;;10.00;;
6392;SDS011;3229;42.674;23.282;2022-09-01T15:15:00;14.07;;;10.65;;
6392;SDS011;3229;42.674;23.282;2022-09-01T15:17:28;14.82;;;9.63;;
6392;SDS011;3229;42.674;23.282;2022-09-01T15:19:54;10.55;;;9.30;;
6392;SDS011;3229;42.674;23.282;2022-09-01T15:22:42;10.02;;;8.32;;
6392;SDS011;3229;42.674;23.282;2022-09-01T15:25:08;12.68;;;9.75;;